sensor_id;sensor_type;location;lat;lon;timestamp;pressure;altitude;pressure_sealevel;temperature;humidity
61554;BME280;47425;51.976;5.326;2023-07-31T00:02:10;100836.09;;;21.90;54.89
61554;BME280;47425;51.976;5.326;2023-07-31T00:04:36;100831.69;;;21.89;55.08
61554;BME280;47425;51.976;5.326;2023-07-31T00:07:06;100832.88;;;21.85;55.17
61554;BME280;47425;51.976;5.326;2023-07-31T00:09:33;100832.72;;;21.60;56.42
61554;BME280;47425;51.976;5.326;2023-07-31T00:12:01;100823.47;;;21.39;57.63
61554;BME280;47425;51.976;5.326;2023-07-31T00:14:27;100826.88;;;21.13;58.61
61554;BME280;47425;51.976;5.326;2023-07-31T00:16:54;100824.34;;;21.12;57.48
61554;BME280;47425;51.976;5.326;2023-07-31T00:19:24;100810.72;;;21.17;58.30
61554;BME280;47425;51.976;5.326;2023-07-31T00:21:51;100814.25;;;21.17;58.36
61554;BME280;47425;51.976;5.326;2023-07-31T00:24:18;100805.69;;;21.12;58.29
61554;BME280;47425;51.976;5.326;2023-07-31T00:26:47;100811.53;;;21.04;58.83
61554;BME280;47425;51.976;5.326;2023-07-31T00:29:15;100812.06;;;21.09;59.12
61554;BME280;47425;51.976;5.326;2023-07-31T00:31:41;100813.22;;;21.05;59.50
61554;BME280;47425;51.976;5.326;2023-07-31T00:34:09;100815.53;;;20.97;59.37
61554;BME280;47425;51.976;5.326;2023-07-31T00:36:38;100815.31;;;21.00;59.61
61554;BME280;47425;51.976;5.326;2023-07-31T00:39:04;100809.09;;;20.87;60.20
61554;BME280;47425;51.976;5.326;2023-07-31T00:41:31;100807.88;;;20.78;60.01
61554;BME280;47425;51.976;5.326;2023-07-31T00:43:58;100815.31;;;20.73;60.81
61554;BME280;47425;51.976;5.326;2023-07-31T00:46:29;100815.00;;;20.63;60.79
61554;BME280;47425;51.976;5.326;2023-07-31T00:49:02;100808.53;;;20.67;60.75
61554;BME280;47425;51.976;5.326;2023-07-31T00:51:35;100809.38;;;20.68;61.40
61554;BME280;47425;51.976;5.326;2023-07-31T00:54:03;100808.28;;;20.43;62.53
61554;BME280;47425;51.976;5.326;2023-07-31T00:56:30;100816.63;;;20.37;62.22
61554;BME280;47425;51.976;5.326;2023-07-31T00:59:05;100808.19;;;20.44;62.63
61554;BME280;47425;51.976;5.326;2023-07-31T01:01:35;100815.59;;;20.54;61.32
61554;BME280;47425;51.976;5.326;2023-07-31T01:04:07;100807.41;;;20.42;62.42
61554;BME280;47425;51.976;5.326;2023-07-31T01:06:40;100804.00;;;20.26;62.17
61554;BME280;47425;51.976;5.326;2023-07-31T01:09:17;100805.91;;;20.24;62.77
61554;BME280;47425;51.976;5.326;2023-07-31T01:11:56;100792.41;;;20.12;64.22
61554;BME280;47425;51.976;5.326;2023-07-31T01:14:27;100807.72;;;20.09;63.35
61554;BME280;47425;51.976;5.326;2023-07-31T01:16:57;100793.94;;;20.17;63.17
61554;BME280;47425;51.976;5.326;2023-07-31T01:19:24;100793.00;;;20.18;63.09
61554;BME280;47425;51.976;5.326;2023-07-31T01:22:04;100792.50;;;20.11;63.39
61554;BME280;47425;51.976;5.326;2023-07-31T01:24:54;100793.34;;;20.11;63.86
61554;BME280;47425;51.976;5.326;2023-07-31T01:27:24;100790.16;;;20.06;64.20
61554;BME280;47425;51.976;5.326;2023-07-31T01:30:00;100782.59;;;19.84;64.33
61554;BME280;47425;51.976;5.326;2023-07-31T01:32:39;100786.72;;;19.74;65.42
61554;BME280;47425;51.976;5.326;2023-07-31T01:35:08;100794.28;;;19.82;65.51
61554;BME280;47425;51.976;5.326;2023-07-31T01:37:35;100786.69;;;19.90;64.93
61554;BME280;47425;51.976;5.326;2023-07-31T01:40:05;100802.09;;;19.99;64.72
61554;BME280;47425;51.976;5.326;2023-07-31T01:42:34;100794.09;;;19.99;64.92
61554;BME280;47425;51.976;5.326;2023-07-31T01:45:05;100803.34;;;20.08;64.35
61554;BME280;47425;51.976;5.326;2023-07-31T01:47:32;100804.47;;;20.18;63.89
61554;BME280;47425;51.976;5.326;2023-07-31T01:50:03;100800.59;;;20.09;64.84
61554;BME280;47425;51.976;5.326;2023-07-31T01:52:30;100798.69;;;19.97;64.58
61554;BME280;47425;51.976;5.326;2023-07-31T01:54:58;100799.34;;;19.70;65.05
61554;BME280;47425;51.976;5.326;2023-07-31T01:57:26;100802.19;;;19.67;65.92
61554;BME280;47425;51.976;5.326;2023-07-31T01:59:54;100787.56;;;19.60;65.97
61554;BME280;47425;51.976;5.326;2023-07-31T02:02:21;100778.47;;;19.64;66.32
61554;BME280;47425;51.976;5.326;2023-07-31T02:04:48;100783.56;;;19.67;66.37
61554;BME280;47425;51.976;5.326;2023-07-31T02:07:15;100777.88;;;19.59;65.97
61554;BME280;47425;51.976;5.326;2023-07-31T02:09:45;100770.78;;;19.59;66.03
61554;BME280;47425;51.976;5.326;2023-07-31T02:12:13;100775.94;;;19.77;65.91
61554;BME280;47425;51.976;5.326;2023-07-31T02:14:42;100778.13;;;19.85;65.79
61554;BME280;47425;51.976;5.326;2023-07-31T02:17:12;100769.66;;;19.78;65.92
61554;BME280;47425;51.976;5.326;2023-07-31T02:19:39;100761.44;;;19.83;65.48
61554;BME280;47425;51.976;5.326;2023-07-31T02:22:05;100759.03;;;19.78;65.26
61554;BME280;47425;51.976;5.326;2023-07-31T02:24:35;100747.03;;;19.87;65.39
61554;BME280;47425;51.976;5.326;2023-07-31T02:27:02;100749.59;;;20.03;64.39
61554;BME280;47425;51.976;5.326;2023-07-31T02:29:30;100744.09;;;20.20;64.07
61554;BME280;47425;51.976;5.326;2023-07-31T02:31:59;100746.63;;;20.07;64.09
61554;BME280;47425;51.976;5.326;2023-07-31T02:34:27;100740.38;;;20.08;64.39
61554;BME280;47425;51.976;5.326;2023-07-31T02:36:57;100747.31;;;20.11;64.15
61554;BME280;47425;51.976;5.326;2023-07-31T02:39:23;100746.09;;;20.02;64.24
61554;BME280;47425;51.976;5.326;2023-07-31T02:41:53;100739.81;;;20.03;64.48
61554;BME280;47425;51.976;5.326;2023-07-31T02:44:19;100742.84;;;20.11;63.88
61554;BME280;47425;51.976;5.326;2023-07-31T02:46:50;100740.94;;;20.14;64.15
61554;BME280;47425;51.976;5.326;2023-07-31T02:49:21;100735.84;;;20.10;64.06
61554;BME280;47425;51.976;5.326;2023-07-31T02:51:49;100736.47;;;20.14;63.94
61554;BME280;47425;51.976;5.326;2023-07-31T02:54:18;100733.19;;;20.10;63.74
61554;BME280;47425;51.976;5.326;2023-07-31T02:56:46;100735.44;;;20.31;63.04
61554;BME280;47425;51.976;5.326;2023-07-31T02:59:14;100736.19;;;20.33;63.05
61554;BME280;47425;51.976;5.326;2023-07-31T03:01:42;100735.81;;;20.25;63.46
61554;BME280;47425;51.976;5.326;2023-07-31T03:04:08;100736.84;;;20.22;63.16
61554;BME280;47425;51.976;5.326;2023-07-31T03:06:35;100730.69;;;20.22;62.93
61554;BME280;47425;51.976;5.326;2023-07-31T03:09:03;100733.53;;;20.33;62.90
61554;BME280;47425;51.976;5.326;2023-07-31T03:11:30;100737.66;;;20.52;62.47
61554;BME280;47425;51.976;5.326;2023-07-31T03:14:00;100732.16;;;20.55;62.45
61554;BME280;47425;51.976;5.326;2023-07-31T03:16:27;100734.75;;;20.42;62.24
61554;BME280;47425;51.976;5.326;2023-07-31T03:18:59;100727.16;;;20.36;62.40
61554;BME280;47425;51.976;5.326;2023-07-31T03:21:25;100726.72;;;20.15;62.67
61554;BME280;47425;51.976;5.326;2023-07-31T03:23:53;100719.41;;;20.04;63.19
61554;BME280;47425;51.976;5.326;2023-07-31T03:26:24;100713.91;;;20.21;62.34
61554;BME280;47425;51.976;5.326;2023-07-31T03:28:55;100716.91;;;20.44;62.36
61554;BME280;47425;51.976;5.326;2023-07-31T03:31:22;100720.56;;;20.56;61.69
61554;BME280;47425;51.976;5.326;2023-07-31T03:33:50;100712.88;;;20.51;61.69
61554;BME280;47425;51.976;5.326;2023-07-31T03:36:17;100701.56;;;20.48;61.75
61554;BME280;47425;51.976;5.326;2023-07-31T03:38:43;100718.66;;;20.58;61.47
61554;BME280;47425;51.976;5.326;2023-07-31T03:41:14;100720.03;;;20.51;61.56
61554;BME280;47425;51.976;5.326;2023-07-31T03:43:50;100708.53;;;20.36;61.93
61554;BME280;47425;51.976;5.326;2023-07-31T03:46:21;100709.09;;;20.41;61.75
61554;BME280;47425;51.976;5.326;2023-07-31T03:48:50;100712.31;;;20.46;61.88
61554;BME280;47425;51.976;5.326;2023-07-31T03:51:17;100708.22;;;20.55;61.51
61554;BME280;47425;51.976;5.326;2023-07-31T03:53:45;100710.69;;;20.58;61.02
61554;BME280;47425;51.976;5.326;2023-07-31T03:56:13;100711.44;;;20.60;60.85
61554;BME280;47425;51.976;5.326;2023-07-31T03:58:40;100701.56;;;20.48;61.59
61554;BME280;47425;51.976;5.326;2023-07-31T04:01:08;100702.63;;;20.45;61.68
61554;BME280;47425;51.976;5.326;2023-07-31T04:03:37;100707.81;;;20.61;61.07
61554;BME280;47425;51.976;5.326;2023-07-31T04:06:07;100703.53;;;20.58;61.16
61554;BME280;47425;51.976;5.326;2023-07-31T04:08:34;100685.47;;;20.63;60.86
61554;BME280;47425;51.976;5.326;2023-07-31T04:11:00;100692.22;;;20.69;60.93
61554;BME280;47425;51.976;5.326;2023-07-31T04:13:30;100686.50;;;20.75;60.59
61554;BME280;47425;51.976;5.326;2023-07-31T04:15:57;100677.25;;;20.81;59.96
61554;BME280;47425;51.976;5.326;2023-07-31T04:18:27;100676.00;;;20.87;59.90
61554;BME280;47425;51.976;5.326;2023-07-31T04:20:57;100668.34;;;20.82;59.84
61554;BME280;47425;51.976;5.326;2023-07-31T04:23:24;100673.88;;;20.79;60.12
61554;BME280;47425;51.976;5.326;2023-07-31T04:25:54;100674.09;;;20.89;59.98
61554;BME280;47425;51.976;5.326;2023-07-31T04:28:22;100661.56;;;20.91;60.00
61554;BME280;47425;51.976;5.326;2023-07-31T04:30:54;100657.19;;;20.90;59.37
61554;BME280;47425;51.976;5.326;2023-07-31T04:33:22;100666.13;;;20.89;59.89
61554;BME280;47425;51.976;5.326;2023-07-31T04:35:51;100668.34;;;20.82;60.40
61554;BME280;47425;51.976;5.326;2023-07-31T04:38:19;100672.06;;;20.79;59.95
61554;BME280;47425;51.976;5.326;2023-07-31T04:40:46;100660.97;;;20.73;60.29
61554;BME280;47425;51.976;5.326;2023-07-31T04:43:20;100663.97;;;20.67;60.70
61554;BME280;47425;51.976;5.326;2023-07-31T04:45:47;100667.16;;;20.59;60.50
61554;BME280;47425;51.976;5.326;2023-07-31T04:48:16;100663.56;;;20.60;60.60
61554;BME280;47425;51.976;5.326;2023-07-31T04:50:43;100666.94;;;20.62;60.73
61554;BME280;47425;51.976;5.326;2023-07-31T04:53:13;100643.84;;;20.62;60.40
61554;BME280;47425;51.976;5.326;2023-07-31T04:55:42;100655.78;;;20.84;60.09
61554;BME280;47425;51.976;5.326;2023-07-31T04:58:09;100657.78;;;20.81;59.97
61554;BME280;47425;51.976;5.326;2023-07-31T05:00:39;100659.09;;;20.88;59.80
61554;BME280;47425;51.976;5.326;2023-07-31T05:03:07;100656.13;;;20.92;59.62
61554;BME280;47425;51.976;5.326;2023-07-31T05:05:36;100646.75;;;21.00;59.00
61554;BME280;47425;51.976;5.326;2023-07-31T05:08:02;100650.69;;;21.07;59.23
61554;BME280;47425;51.976;5.326;2023-07-31T05:10:31;100648.03;;;21.07;58.86
61554;BME280;47425;51.976;5.326;2023-07-31T05:12:58;100651.56;;;21.07;58.97
61554;BME280;47425;51.976;5.326;2023-07-31T05:15:25;100644.31;;;20.97;59.26
61554;BME280;47425;51.976;5.326;2023-07-31T05:17:52;100654.19;;;20.94;59.33
61554;BME280;47425;51.976;5.326;2023-07-31T05:20:18;100641.22;;;20.90;59.68
61554;BME280;47425;51.976;5.326;2023-07-31T05:22:51;100652.13;;;20.72;60.16
61554;BME280;47425;51.976;5.326;2023-07-31T05:25:21;100651.75;;;20.64;60.94
61554;BME280;47425;51.976;5.326;2023-07-31T05:27:50;100637.13;;;20.57;60.95
61554;BME280;47425;51.976;5.326;2023-07-31T05:30:18;100642.91;;;20.63;60.92
61554;BME280;47425;51.976;5.326;2023-07-31T05:32:48;100633.31;;;20.61;60.65
61554;BME280;47425;51.976;5.326;2023-07-31T05:35:15;100636.75;;;20.63;60.32
61554;BME280;47425;51.976;5.326;2023-07-31T05:37:42;100630.97;;;20.84;60.21
61554;BME280;47425;51.976;5.326;2023-07-31T05:40:09;100625.78;;;20.95;59.54
61554;BME280;47425;51.976;5.326;2023-07-31T05:42:36;100623.75;;;20.99;59.62
61554;BME280;47425;51.976;5.326;2023-07-31T05:45:06;100612.66;;;20.92;59.71
61554;BME280;47425;51.976;5.326;2023-07-31T05:47:33;100619.59;;;20.94;59.27
61554;BME280;47425;51.976;5.326;2023-07-31T05:50:00;100607.88;;;20.97;59.42
61554;BME280;47425;51.976;5.326;2023-07-31T05:52:28;100612.81;;;21.03;59.16
61554;BME280;47425;51.976;5.326;2023-07-31T05:54:56;100600.03;;;21.21;58.65
61554;BME280;47425;51.976;5.326;2023-07-31T05:57:23;100604.00;;;21.28;58.33
61554;BME280;47425;51.976;5.326;2023-07-31T05:59:49;100605.56;;;21.31;58.28
61554;BME280;47425;51.976;5.326;2023-07-31T06:02:17;100602.69;;;21.21;59.13
61554;BME280;47425;51.976;5.326;2023-07-31T06:04:48;100599.50;;;21.29;58.82
61554;BME280;47425;51.976;5.326;2023-07-31T06:07:17;100594.91;;;21.31;58.55
61554;BME280;47425;51.976;5.326;2023-07-31T06:09:44;100598.09;;;21.36;58.08
61554;BME280;47425;51.976;5.326;2023-07-31T06:12:11;100603.25;;;21.39;58.54
61554;BME280;47425;51.976;5.326;2023-07-31T06:14:38;100596.19;;;21.38;58.20
61554;BME280;47425;51.976;5.326;2023-07-31T06:17:05;100581.06;;;21.39;58.28
61554;BME280;47425;51.976;5.326;2023-07-31T06:19:35;100585.22;;;21.43;58.09
61554;BME280;47425;51.976;5.326;2023-07-31T06:22:01;100586.28;;;21.40;58.47
61554;BME280;47425;51.976;5.326;2023-07-31T06:24:28;100574.47;;;21.32;58.84
61554;BME280;47425;51.976;5.326;2023-07-31T06:26:57;100582.13;;;21.36;58.50
61554;BME280;47425;51.976;5.326;2023-07-31T06:29:27;100563.28;;;21.39;58.53
61554;BME280;47425;51.976;5.326;2023-07-31T06:31:53;100573.28;;;21.36;58.68
61554;BME280;47425;51.976;5.326;2023-07-31T06:34:20;100568.38;;;21.29;58.32
61554;BME280;47425;51.976;5.326;2023-07-31T06:36:53;100569.25;;;21.30;58.81
61554;BME280;47425;51.976;5.326;2023-07-31T06:39:22;100572.56;;;21.21;59.29
61554;BME280;47425;51.976;5.326;2023-07-31T06:41:50;100562.22;;;21.16;59.18
61554;BME280;47425;51.976;5.326;2023-07-31T06:44:17;100568.28;;;21.18;59.20
61554;BME280;47425;51.976;5.326;2023-07-31T06:46:44;100567.75;;;21.13;59.72
61554;BME280;47425;51.976;5.326;2023-07-31T06:49:12;100560.63;;;21.01;60.35
61554;BME280;47425;51.976;5.326;2023-07-31T06:51:40;100539.41;;;20.86;61.19
61554;BME280;47425;51.976;5.326;2023-07-31T06:54:12;100546.88;;;20.94;60.51
61554;BME280;47425;51.976;5.326;2023-07-31T06:56:40;100540.28;;;21.12;60.85
61554;BME280;47425;51.976;5.326;2023-07-31T06:59:09;100542.06;;;21.12;60.27
61554;BME280;47425;51.976;5.326;2023-07-31T07:01:35;100534.19;;;21.10;60.92
61554;BME280;47425;51.976;5.326;2023-07-31T07:04:02;100540.19;;;21.14;60.64
61554;BME280;47425;51.976;5.326;2023-07-31T07:06:30;100540.06;;;21.16;60.64
61554;BME280;47425;51.976;5.326;2023-07-31T07:08:59;100532.38;;;21.24;60.45
61554;BME280;47425;51.976;5.326;2023-07-31T07:11:27;100523.97;;;21.30;60.37
61554;BME280;47425;51.976;5.326;2023-07-31T07:13:54;100537.81;;;21.35;60.27
61554;BME280;47425;51.976;5.326;2023-07-31T07:16:20;100535.56;;;21.29;60.41
61554;BME280;47425;51.976;5.326;2023-07-31T07:18:48;100530.06;;;21.19;61.25
61554;BME280;47425;51.976;5.326;2023-07-31T07:21:18;100528.47;;;21.17;61.41
61554;BME280;47425;51.976;5.326;2023-07-31T07:23:45;100536.22;;;21.20;61.06
61554;BME280;47425;51.976;5.326;2023-07-31T07:26:12;100537.28;;;21.30;60.31
61554;BME280;47425;51.976;5.326;2023-07-31T07:28:40;100534.50;;;21.32;60.44
61554;BME280;47425;51.976;5.326;2023-07-31T07:31:10;100537.19;;;21.19;61.14
61554;BME280;47425;51.976;5.326;2023-07-31T07:33:38;100531.75;;;21.07;61.48
61554;BME280;47425;51.976;5.326;2023-07-31T07:36:05;100528.16;;;21.08;61.65
61554;BME280;47425;51.976;5.326;2023-07-31T07:38:35;100524.72;;;21.06;61.92
61554;BME280;47425;51.976;5.326;2023-07-31T07:41:02;100541.53;;;21.07;61.31
61554;BME280;47425;51.976;5.326;2023-07-31T07:43:30;100533.78;;;21.17;60.64
61554;BME280;47425;51.976;5.326;2023-07-31T07:45:58;100536.09;;;21.21;61.58
61554;BME280;47425;51.976;5.326;2023-07-31T07:48:25;100533.34;;;21.23;60.82
61554;BME280;47425;51.976;5.326;2023-07-31T07:50:52;100524.50;;;21.22;61.23
61554;BME280;47425;51.976;5.326;2023-07-31T07:53:18;100523.97;;;21.17;62.09
61554;BME280;47425;51.976;5.326;2023-07-31T07:55:47;100525.78;;;21.17;61.26
61554;BME280;47425;51.976;5.326;2023-07-31T07:58:14;100527.47;;;21.18;61.86
61554;BME280;47425;51.976;5.326;2023-07-31T08:00:41;100531.44;;;21.12;61.52
61554;BME280;47425;51.976;5.326;2023-07-31T08:03:09;100525.38;;;21.10;61.84
61554;BME280;47425;51.976;5.326;2023-07-31T08:05:35;100524.63;;;21.08;62.56
61554;BME280;47425;51.976;5.326;2023-07-31T08:08:02;100523.16;;;20.91;63.01
61554;BME280;47425;51.976;5.326;2023-07-31T08:10:29;100528.53;;;20.89;63.24
61554;BME280;47425;51.976;5.326;2023-07-31T08:12:56;100519.81;;;20.74;63.44
61554;BME280;47425;51.976;5.326;2023-07-31T08:15:22;100517.38;;;20.71;64.12
61554;BME280;47425;51.976;5.326;2023-07-31T08:17:49;100523.06;;;20.65;64.39
61554;BME280;47425;51.976;5.326;2023-07-31T08:20:17;100514.03;;;20.55;63.99
61554;BME280;47425;51.976;5.326;2023-07-31T08:22:45;100518.81;;;20.62;64.53
61554;BME280;47425;51.976;5.326;2023-07-31T08:25:12;100508.44;;;20.72;64.40
61554;BME280;47425;51.976;5.326;2023-07-31T08:27:43;100502.06;;;20.75;64.19
61554;BME280;47425;51.976;5.326;2023-07-31T08:30:11;100504.91;;;20.72;64.21
61554;BME280;47425;51.976;5.326;2023-07-31T08:32:39;100517.56;;;20.68;64.75
61554;BME280;47425;51.976;5.326;2023-07-31T08:35:07;100509.44;;;20.57;65.32
61554;BME280;47425;51.976;5.326;2023-07-31T08:37:41;100497.09;;;20.56;65.06
61554;BME280;47425;51.976;5.326;2023-07-31T08:40:10;100510.03;;;20.75;63.81
61554;BME280;47425;51.976;5.326;2023-07-31T08:42:45;100501.75;;;20.92;63.45
61554;BME280;47425;51.976;5.326;2023-07-31T08:45:14;100496.69;;;21.13;62.99
61554;BME280;47425;51.976;5.326;2023-07-31T08:47:45;100500.75;;;21.19;62.94
61554;BME280;47425;51.976;5.326;2023-07-31T08:50:15;100502.66;;;21.17;63.57
61554;BME280;47425;51.976;5.326;2023-07-31T08:52:47;100511.50;;;21.18;62.80
61554;BME280;47425;51.976;5.326;2023-07-31T08:55:15;100499.78;;;21.20;62.22
61554;BME280;47425;51.976;5.326;2023-07-31T08:57:42;100513.31;;;21.30;62.37
61554;BME280;47425;51.976;5.326;2023-07-31T09:00:10;100510.19;;;21.36;62.96
61554;BME280;47425;51.976;5.326;2023-07-31T09:02:44;100502.13;;;21.25;63.15
61554;BME280;47425;51.976;5.326;2023-07-31T09:05:13;100511.31;;;21.21;63.05
61554;BME280;47425;51.976;5.326;2023-07-31T09:07:43;100502.13;;;21.12;63.35
61554;BME280;47425;51.976;5.326;2023-07-31T09:10:14;100496.09;;;20.97;64.47
61554;BME280;47425;51.976;5.326;2023-07-31T09:12:41;100509.28;;;20.86;64.96
61554;BME280;47425;51.976;5.326;2023-07-31T09:15:11;100511.97;;;20.86;64.50
61554;BME280;47425;51.976;5.326;2023-07-31T09:17:42;100503.22;;;20.97;64.49
61554;BME280;47425;51.976;5.326;2023-07-31T09:20:14;100513.00;;;20.96;64.20
61554;BME280;47425;51.976;5.326;2023-07-31T09:22:42;100497.47;;;20.90;65.05
61554;BME280;47425;51.976;5.326;2023-07-31T09:25:18;100484.91;;;20.92;64.78
61554;BME280;47425;51.976;5.326;2023-07-31T09:27:53;100492.13;;;21.03;64.17
61554;BME280;47425;51.976;5.326;2023-07-31T09:30:21;100497.47;;;21.03;64.29
61554;BME280;47425;51.976;5.326;2023-07-31T09:32:50;100493.84;;;21.04;64.46
61554;BME280;47425;51.976;5.326;2023-07-31T09:35:21;100494.16;;;21.12;64.16
61554;BME280;47425;51.976;5.326;2023-07-31T09:37:52;100485.63;;;21.20;64.80
61554;BME280;47425;51.976;5.326;2023-07-31T09:40:27;100487.88;;;21.26;63.43
61554;BME280;47425;51.976;5.326;2023-07-31T09:43:02;100483.44;;;21.38;63.67
61554;BME280;47425;51.976;5.326;2023-07-31T09:45:36;100486.53;;;21.44;63.47
61554;BME280;47425;51.976;5.326;2023-07-31T09:48:17;100479.16;;;21.48;63.45
61554;BME280;47425;51.976;5.326;2023-07-31T09:50:48;100476.84;;;21.43;63.50
61554;BME280;47425;51.976;5.326;2023-07-31T09:53:16;100489.19;;;21.44;63.41
61554;BME280;47425;51.976;5.326;2023-07-31T09:55:44;100474.19;;;21.43;63.28
61554;BME280;47425;51.976;5.326;2023-07-31T09:58:13;100483.63;;;21.60;62.27
61554;BME280;47425;51.976;5.326;2023-07-31T10:00:42;100481.50;;;21.66;62.92
61554;BME280;47425;51.976;5.326;2023-07-31T10:03:11;100486.59;;;21.69;63.03
61554;BME280;47425;51.976;5.326;2023-07-31T10:05:40;100474.47;;;21.52;63.60
61554;BME280;47425;51.976;5.326;2023-07-31T10:08:10;100468.41;;;21.50;63.48
61554;BME280;47425;51.976;5.326;2023-07-31T10:10:44;100472.50;;;21.55;62.93
61554;BME280;47425;51.976;5.326;2023-07-31T10:13:15;100478.78;;;21.54;63.74
61554;BME280;47425;51.976;5.326;2023-07-31T10:15:47;100473.97;;;21.59;63.28
61554;BME280;47425;51.976;5.326;2023-07-31T10:18:15;100481.06;;;21.72;63.12
61554;BME280;47425;51.976;5.326;2023-07-31T10:20:43;100478.03;;;21.76;62.64
61554;BME280;47425;51.976;5.326;2023-07-31T10:23:12;100476.56;;;21.72;62.46
61554;BME280;47425;51.976;5.326;2023-07-31T10:25:44;100476.69;;;21.71;63.11
61554;BME280;47425;51.976;5.326;2023-07-31T10:28:12;100474.97;;;21.70;63.36
61554;BME280;47425;51.976;5.326;2023-07-31T10:30:42;100481.06;;;21.72;63.18
61554;BME280;47425;51.976;5.326;2023-07-31T10:33:09;100477.44;;;21.73;62.95
61554;BME280;47425;51.976;5.326;2023-07-31T10:35:40;100466.06;;;21.82;63.02
61554;BME280;47425;51.976;5.326;2023-07-31T10:38:11;100481.00;;;21.85;62.33
61554;BME280;47425;51.976;5.326;2023-07-31T10:40:38;100474.19;;;21.81;62.41
61554;BME280;47425;51.976;5.326;2023-07-31T10:43:06;100475.16;;;21.79;62.17
61554;BME280;47425;51.976;5.326;2023-07-31T10:45:38;100470.97;;;21.88;62.18
61554;BME280;47425;51.976;5.326;2023-07-31T10:48:07;100475.38;;;22.01;61.91
61554;BME280;47425;51.976;5.326;2023-07-31T10:50:47;100481.34;;;22.04;62.69
61554;BME280;47425;51.976;5.326;2023-07-31T10:53:23;100492.97;;;22.03;62.40
61554;BME280;47425;51.976;5.326;2023-07-31T10:55:51;100472.78;;;21.88;62.89
61554;BME280;47425;51.976;5.326;2023-07-31T10:58:20;100475.22;;;21.91;63.05
61554;BME280;47425;51.976;5.326;2023-07-31T11:00:48;100468.19;;;21.90;63.23
61554;BME280;47425;51.976;5.326;2023-07-31T11:03:19;100479.41;;;21.82;62.60
61554;BME280;47425;51.976;5.326;2023-07-31T11:05:49;100463.72;;;21.66;63.91
61554;BME280;47425;51.976;5.326;2023-07-31T11:08:20;100469.81;;;21.55;63.15
61554;BME280;47425;51.976;5.326;2023-07-31T11:10:50;100470.78;;;21.54;62.94
61554;BME280;47425;51.976;5.326;2023-07-31T11:13:18;100471.38;;;21.58;63.32
61554;BME280;47425;51.976;5.326;2023-07-31T11:15:45;100468.28;;;21.64;63.34
61554;BME280;47425;51.976;5.326;2023-07-31T11:18:12;100476.78;;;21.69;63.97
61554;BME280;47425;51.976;5.326;2023-07-31T11:20:39;100469.88;;;21.67;64.05
61554;BME280;47425;51.976;5.326;2023-07-31T11:23:09;100476.25;;;21.77;63.57
61554;BME280;47425;51.976;5.326;2023-07-31T11:25:37;100462.59;;;21.69;62.73
61554;BME280;47425;51.976;5.326;2023-07-31T11:28:10;100464.16;;;21.84;63.20
61554;BME280;47425;51.976;5.326;2023-07-31T11:30:38;100459.56;;;21.86;63.94
61554;BME280;47425;51.976;5.326;2023-07-31T11:33:06;100458.06;;;21.82;63.92
61554;BME280;47425;51.976;5.326;2023-07-31T11:35:35;100452.53;;;21.85;63.23
61554;BME280;47425;51.976;5.326;2023-07-31T11:38:02;100462.72;;;21.91;62.64
61554;BME280;47425;51.976;5.326;2023-07-31T11:40:29;100448.94;;;21.98;62.29
61554;BME280;47425;51.976;5.326;2023-07-31T11:42:57;100463.69;;;22.15;61.59
61554;BME280;47425;51.976;5.326;2023-07-31T11:45:26;100450.03;;;22.31;61.25
61554;BME280;47425;51.976;5.326;2023-07-31T11:47:56;100450.63;;;22.34;61.01
61554;BME280;47425;51.976;5.326;2023-07-31T11:50:33;100460.88;;;22.40;61.91
61554;BME280;47425;51.976;5.326;2023-07-31T11:53:06;100451.28;;;22.38;60.67
61554;BME280;47425;51.976;5.326;2023-07-31T11:55:37;100460.41;;;22.46;60.13
61554;BME280;47425;51.976;5.326;2023-07-31T11:58:07;100459.69;;;22.44;60.60
61554;BME280;47425;51.976;5.326;2023-07-31T12:00:34;100458.72;;;22.45;60.17
61554;BME280;47425;51.976;5.326;2023-07-31T12:03:04;100456.66;;;22.25;61.27
61554;BME280;47425;51.976;5.326;2023-07-31T12:05:30;100465.16;;;22.19;61.69
61554;BME280;47425;51.976;5.326;2023-07-31T12:07:57;100465.38;;;22.16;61.81
61554;BME280;47425;51.976;5.326;2023-07-31T12:10:29;100470.50;;;22.19;61.67
61554;BME280;47425;51.976;5.326;2023-07-31T12:12:58;100474.69;;;22.10;61.09
61554;BME280;47425;51.976;5.326;2023-07-31T12:15:38;100465.69;;;22.00;62.57
61554;BME280;47425;51.976;5.326;2023-07-31T12:18:09;100470.25;;;21.86;62.85
61554;BME280;47425;51.976;5.326;2023-07-31T12:20:41;100476.16;;;21.90;62.36
61554;BME280;47425;51.976;5.326;2023-07-31T12:23:17;100459.78;;;21.83;62.96
61554;BME280;47425;51.976;5.326;2023-07-31T12:26:00;100447.31;;;21.84;62.35
61554;BME280;47425;51.976;5.326;2023-07-31T12:28:28;100441.00;;;21.85;62.67
61554;BME280;47425;51.976;5.326;2023-07-31T12:30:57;100444.25;;;22.01;61.58
61554;BME280;47425;51.976;5.326;2023-07-31T12:33:32;100441.84;;;22.09;62.42
61554;BME280;47425;51.976;5.326;2023-07-31T12:36:08;100430.94;;;22.12;61.83
61554;BME280;47425;51.976;5.326;2023-07-31T12:38:36;100418.94;;;22.18;61.41
61554;BME280;47425;51.976;5.326;2023-07-31T12:41:07;100426.25;;;22.27;61.29
61554;BME280;47425;51.976;5.326;2023-07-31T12:43:34;100419.66;;;22.44;61.51
61554;BME280;47425;51.976;5.326;2023-07-31T12:46:02;100413.50;;;22.55;60.70
61554;BME280;47425;51.976;5.326;2023-07-31T12:48:31;100408.66;;;22.60;61.62
61554;BME280;47425;51.976;5.326;2023-07-31T12:50:58;100411.91;;;22.64;61.27
61554;BME280;47425;51.976;5.326;2023-07-31T12:53:25;100416.28;;;22.65;60.84
61554;BME280;47425;51.976;5.326;2023-07-31T12:55:52;100409.97;;;22.66;60.02
61554;BME280;47425;51.976;5.326;2023-07-31T12:58:18;100407.31;;;22.66;61.10
61554;BME280;47425;51.976;5.326;2023-07-31T13:00:45;100397.94;;;22.49;61.47